Southlake's Hourly Summary for Monday, May 7, 2018
Hour Temp
(f)
RH
(%)
Solar Rad.
(MJ/m2)
Rainfall
(in)
Wind
(mph)
5/7/2018 12:00 AM 63 84 0 0 0.67
5/7/2018 1:00 AM 63 87 0 0 1.18
5/7/2018 2:00 AM 61 91 0 0 0.89
5/7/2018 3:00 AM 60 94 0 0 1
5/7/2018 4:00 AM 59 96 0 0 1.29
5/7/2018 5:00 AM 59 95 0 0 0.67
5/7/2018 6:00 AM 58 96 0.01 0 1.17
5/7/2018 7:00 AM 60 92 0.26 0 0.84
5/7/2018 8:00 AM 69 70 1.04 0 2.63
5/7/2018 9:00 AM 74 58 1.82 0 3.69
5/7/2018 10:00 AM 79 50 2.53 0 5.48
5/7/2018 11:00 AM 83 45 2.77 0 4.87
5/7/2018 12:00 PM 86 37 3.35 0 5.7
5/7/2018 1:00 PM 89 32 3.45 0 4.87
5/7/2018 2:00 PM 91 27 3.17 0 4.31
5/7/2018 3:00 PM 92 25 3.09 0 5.03
5/7/2018 4:00 PM 93 25 2.58 0 4.42
5/7/2018 5:00 PM 92 27 1.88 0 5.82
5/7/2018 6:00 PM 90 31 1.07 0 5.54
5/7/2018 7:00 PM 87 37 0.36 0 4.75
5/7/2018 8:00 PM 83 43 0.01 0 3.36
5/7/2018 9:00 PM 80 50 0 0 2.07
5/7/2018 10:00 PM 80 50 0 0 3.58
5/7/2018 11:00 PM 77 55 0 0 3.19
Data Summary 76 58 27.39 0.00 3.21